Time;durP1;ratioP1;P1;durP2;ratioP2;P2;SDS_P1;SDS_P2;PMS_P1;PMS_P2;Temp;Humidity;BMP_temperature;BMP_pressure;BME280_temperature;BME280_humidity;BME280_pressure;Samples;Min_cycle;Max_cycle;Signal;HPM_P1;HPM_P2
2022/06/30 00:00:11;;;;;;;5.55;2.70;;;22.50;84.00;;;;;;4164866;28;20041;-92
2022/06/30 00:02:12;;;;;;;4.57;3.28;;;22.50;83.90;;;;;;4178837;28;20049;-92
2022/06/30 00:04:14;;;;;;;5.88;3.13;;;22.50;84.00;;;;;;4161949;28;20504;-92
2022/06/30 00:06:16;;;;;;;6.93;3.10;;;22.40;84.00;;;;;;4157494;28;20054;-92
2022/06/30 00:08:16;;;;;;;5.20;2.80;;;22.40;84.20;;;;;;4175021;28;20425;-92
2022/06/30 00:10:17;;;;;;;6.43;3.03;;;22.40;84.40;;;;;;4165610;28;20120;-92
2022/06/30 00:12:18;;;;;;;3.10;2.38;;;22.30;84.50;;;;;;4157700;28;20120;-92
2022/06/30 00:14:19;;;;;;;3.65;3.05;;;22.30;84.70;;;;;;4152709;28;20045;-92
2022/06/30 00:16:20;;;;;;;6.60;2.85;;;22.30;85.10;;;;;;4153953;28;20497;-91
2022/06/30 00:18:21;;;;;;;4.22;2.38;;;22.30;85.50;;;;;;4165143;28;20413;-92
2022/06/30 00:20:22;;;;;;;5.30;2.92;;;22.20;85.90;;;;;;4152072;28;20572;-93
2022/06/30 00:22:25;;;;;;;5.80;3.05;;;22.20;86.10;;;;;;4154629;28;20120;-92
2022/06/30 00:24:26;;;;;;;3.83;3.33;;;22.20;86.10;;;;;;4157511;28;20046;-93
2022/06/30 00:26:27;;;;;;;4.88;3.30;;;22.10;86.30;;;;;;4156632;28;20060;-92
2022/06/30 00:28:28;;;;;;;6.28;2.90;;;22.10;86.60;;;;;;4160929;28;20104;-92
2022/06/30 00:30:29;;;;;;;4.57;2.92;;;22.00;86.70;;;;;;4164784;28;20041;-92
2022/06/30 00:32:30;;;;;;;4.85;2.83;;;22.00;87.10;;;;;;4164393;28;20200;-91
2022/06/30 00:34:31;;;;;;;5.10;2.88;;;22.00;87.60;;;;;;4155713;28;20525;-92
2022/06/30 00:36:32;;;;;;;6.22;2.88;;;21.90;87.90;;;;;;4158155;28;20081;-91
2022/06/30 00:38:33;;;;;;;3.90;3.17;;;21.80;88.20;;;;;;4164024;28;20092;-92
2022/06/30 00:40:38;;;;;;;3.65;2.90;;;21.80;88.50;;;;;;4163164;28;20128;-92
2022/06/30 00:42:39;;;;;;;3.67;2.72;;;21.70;88.60;;;;;;4158638;28;20108;-92
2022/06/30 00:44:41;;;;;;;5.93;2.97;;;21.70;88.60;;;;;;4156328;28;20050;-92
2022/06/30 00:46:44;;;;;;;4.53;2.92;;;21.60;88.80;;;;;;4158340;28;20089;-91
2022/06/30 00:48:46;;;;;;;6.63;3.08;;;21.60;89.00;;;;;;4160156;28;20576;-92
2022/06/30 00:50:46;;;;;;;4.88;3.20;;;21.50;89.20;;;;;;4164343;28;20520;-92
2022/06/30 00:52:50;;;;;;;6.72;3.85;;;21.50;89.60;;;;;;4164684;28;20045;-92
2022/06/30 00:54:54;;;;;;;7.00;3.50;;;21.40;90.00;;;;;;4170975;28;20045;-92
2022/06/30 00:56:57;;;;;;;5.10;3.25;;;21.40;90.00;;;;;;4161965;28;20825;-92
2022/06/30 00:59:02;;;;;;;5.72;3.00;;;21.40;90.00;;;;;;4170689;28;20462;-92
2022/06/30 01:01:06;;;;;;;4.97;3.40;;;21.40;90.10;;;;;;4159280;28;20095;-92
2022/06/30 01:03:09;;;;;;;4.40;3.40;;;21.30;90.20;;;;;;4163180;28;20485;-93
2022/06/30 01:05:10;;;;;;;4.10;3.22;;;21.30;90.40;;;;;;4160415;28;20053;-92
2022/06/30 01:07:12;;;;;;;5.85;3.67;;;21.20;90.40;;;;;;4179755;28;20063;-92
2022/06/30 01:12:41;;;;;;;4.95;3.10;;;21.20;90.50;;;;;;4163193;28;20057;-92
2022/06/30 01:14:10;;;;;;;3.25;2.65;;;21.10;90.50;;;;;;4144580;28;20080;-91
2022/06/30 01:16:11;;;;;;;3.58;2.88;;;21.10;90.40;;;;;;4175974;28;20053;-91
2022/06/30 01:18:12;;;;;;;4.88;2.97;;;21.00;90.50;;;;;;4163123;28;20038;-92
2022/06/30 01:20:29;;;;;;;3.60;2.70;;;21.00;90.50;;;;;;4149090;28;20133;-91
2022/06/30 01:22:30;;;;;;;4.25;2.75;;;20.90;90.60;;;;;;4159594;28;20089;-92
2022/06/30 01:24:31;;;;;;;4.03;2.60;;;20.80;90.60;;;;;;4152952;28;20057;-92
2022/06/30 01:26:32;;;;;;;5.45;2.20;;;20.80;90.70;;;;;;4149665;28;20042;-92
2022/06/30 01:28:34;;;;;;;2.70;2.40;;;20.70;90.70;;;;;;4150174;28;20424;-92
2022/06/30 01:30:35;;;;;;;3.53;2.47;;;20.70;90.70;;;;;;4148181;28;20053;-91
2022/06/30 01:32:36;;;;;;;4.90;2.25;;;20.70;90.80;;;;;;4160595;28;20041;-92
2022/06/30 01:34:38;;;;;;;7.07;2.80;;;20.70;91.10;;;;;;4152188;28;20109;-92
2022/06/30 01:36:39;;;;;;;5.30;2.53;;;20.60;90.90;;;;;;4162236;28;20043;-92
2022/06/30 01:38:40;;;;;;;2.88;2.38;;;20.60;91.00;;;;;;4161229;28;20077;-92
2022/06/30 01:40:40;;;;;;;3.58;2.28;;;20.60;91.00;;;;;;4172842;28;20033;-92
2022/06/30 01:42:42;;;;;;;3.83;2.30;;;20.50;91.00;;;;;;4180113;28;20037;-91
2022/06/30 01:44:43;;;;;;;2.92;2.17;;;20.50;91.20;;;;;;4167832;28;20378;-93
2022/06/30 01:46:48;;;;;;;5.32;2.47;;;20.50;91.40;;;;;;4165221;28;20065;-93
2022/06/30 01:48:50;;;;;;;3.88;2.60;;;20.50;91.50;;;;;;4159395;28;20045;-93
2022/06/30 01:50:51;;;;;;;4.32;2.15;;;20.50;91.40;;;;;;4148801;28;20528;-93
2022/06/30 01:52:52;;;;;;;2.78;2.50;;;20.40;91.50;;;;;;4154125;28;20128;-93
2022/06/30 01:54:53;;;;;;;3.22;2.53;;;20.40;91.50;;;;;;4157192;28;20470;-92
2022/06/30 01:56:53;;;;;;;2.92;2.42;;;20.30;91.60;;;;;;4170403;28;20052;-92
2022/06/30 01:58:54;;;;;;;3.00;2.20;;;20.30;91.80;;;;;;4175027;28;20389;-93
2022/06/30 02:00:56;;;;;;;12.05;2.42;;;20.20;91.90;;;;;;4179549;28;20485;-92
2022/06/30 02:02:57;;;;;;;3.70;2.45;;;20.20;92.10;;;;;;4153263;28;20045;-92
2022/06/30 02:04:57;;;;;;;5.45;2.20;;;20.10;92.10;;;;;;4162903;28;20411;-93
2022/06/30 02:06:58;;;;;;;6.00;2.50;;;20.10;92.20;;;;;;4162453;28;20057;-92
2022/06/30 02:08:59;;;;;;;2.63;2.25;;;20.00;92.30;;;;;;4152107;28;20050;-92
2022/06/30 02:11:00;;;;;;;3.40;2.53;;;19.90;92.40;;;;;;4156245;28;20047;-92
2022/06/30 02:13:01;;;;;;;3.03;2.40;;;19.90;92.40;;;;;;4164671;28;20041;-92
2022/06/30 02:15:02;;;;;;;4.90;2.30;;;19.90;92.50;;;;;;4156220;28;20046;-92
2022/06/30 02:17:03;;;;;;;3.25;2.30;;;19.90;92.60;;;;;;4151229;28;20050;-93
2022/06/30 02:19:04;;;;;;;5.63;3.20;;;19.90;92.50;;;;;;4161748;28;20050;-92
2022/06/30 02:21:05;;;;;;;3.72;2.42;;;19.80;92.60;;;;;;4161792;28;20540;-92
2022/06/30 02:23:06;;;;;;;3.35;2.38;;;19.80;92.70;;;;;;4154674;28;20045;-92
2022/06/30 02:25:08;;;;;;;4.43;2.40;;;19.80;92.80;;;;;;4156641;28;20128;-91
2022/06/30 02:27:09;;;;;;;5.57;2.20;;;19.80;92.90;;;;;;4153951;28;20152;-92
2022/06/30 02:29:10;;;;;;;8.85;3.08;;;19.80;93.00;;;;;;4169298;28;20049;-92
2022/06/30 02:31:14;;;;;;;3.88;2.38;;;19.80;93.00;;;;;;4165573;28;20068;-92
2022/06/30 02:33:17;;;;;;;3.70;2.20;;;19.80;93.10;;;;;;4166162;28;20049;-91
2022/06/30 02:35:18;;;;;;;4.63;2.53;;;19.80;93.20;;;;;;4166497;28;20045;-92
2022/06/30 02:37:19;;;;;;;4.75;2.40;;;19.80;93.30;;;;;;4152989;28;20038;-92
2022/06/30 02:39:20;;;;;;;3.75;2.80;;;19.80;93.30;;;;;;4136777;28;20092;-91
2022/06/30 02:41:21;;;;;;;4.80;2.10;;;19.70;93.30;;;;;;4180991;28;20037;-91
2022/06/30 02:43:22;;;;;;;6.07;2.80;;;19.70;93.40;;;;;;4165523;28;20172;-91
2022/06/30 02:45:23;;;;;;;3.13;2.40;;;19.70;93.40;;;;;;4153725;28;20168;-91
2022/06/30 02:47:43;;;;;;;6.15;2.80;;;19.60;93.40;;;;;;4164886;28;20044;-93
2022/06/30 02:49:44;;;;;;;5.40;3.13;;;19.60;93.70;;;;;;4154609;28;20073;-92
2022/06/30 02:51:45;;;;;;;6.25;2.70;;;19.60;93.60;;;;;;4195868;28;20103;-92
2022/06/30 02:53:46;;;;;;;4.05;2.70;;;19.50;93.60;;;;;;4171541;28;20049;-92
2022/06/30 02:55:47;;;;;;;4.38;2.58;;;19.50;93.70;;;;;;4153754;28;20053;-93
2022/06/30 02:57:48;;;;;;;4.65;2.78;;;19.50;93.80;;;;;;4172248;28;20040;-93
2022/06/30 02:59:49;;;;;;;5.13;3.15;;;19.50;94.00;;;;;;4163466;28;20049;-92
2022/06/30 03:01:50;;;;;;;5.63;3.45;;;19.40;94.10;;;;;;4163478;28;20042;-91
2022/06/30 03:03:51;;;;;;;7.68;3.30;;;19.40;94.20;;;;;;4166405;28;20116;-92
2022/06/30 03:05:51;;;;;;;6.40;3.47;;;19.30;94.30;;;;;;4179208;28;20045;-92
2022/06/30 03:07:53;;;;;;;5.40;3.35;;;19.30;94.40;;;;;;4166132;28;20489;-92
2022/06/30 03:09:54;;;;;;;5.05;3.13;;;19.30;94.70;;;;;;4152171;28;20042;-92
2022/06/30 03:11:57;;;;;;;6.53;3.45;;;19.20;94.80;;;;;;4161462;28;20091;-91
2022/06/30 03:13:57;;;;;;;4.97;3.38;;;19.20;94.80;;;;;;4152700;28;20553;-92
2022/06/30 03:16:01;;;;;;;4.72;3.40;;;19.20;94.90;;;;;;4164391;28;20038;-92
2022/06/30 03:18:02;;;;;;;6.10;3.50;;;19.20;95.10;;;;;;4165958;28;20164;-93
2022/06/30 03:20:04;;;;;;;5.25;3.58;;;19.10;95.30;;;;;;4182589;28;20088;-91
2022/06/30 03:22:05;;;;;;;6.47;4.00;;;19.00;95.30;;;;;;4163338;28;20045;-93
2022/06/30 03:24:06;;;;;;;4.93;3.60;;;19.00;95.40;;;;;;4160958;28;20073;-92
2022/06/30 03:26:07;;;;;;;6.40;4.07;;;19.00;95.50;;;;;;4158371;28;20432;-92
2022/06/30 03:28:08;;;;;;;4.55;3.22;;;19.00;95.60;;;;;;4153545;28;20124;-92
2022/06/30 03:30:10;;;;;;;4.47;3.10;;;18.90;95.60;;;;;;4154937;28;20128;-92
2022/06/30 03:32:11;;;;;;;5.45;3.53;;;18.90;95.80;;;;;;4163777;28;20045;-92
2022/06/30 03:34:12;;;;;;;8.52;3.38;;;18.90;95.80;;;;;;4164432;28;20060;-91
2022/06/30 03:36:14;;;;;;;4.88;3.40;;;18.90;95.90;;;;;;4165049;28;20140;-91
2022/06/30 03:38:16;;;;;;;8.88;4.18;;;18.80;96.10;;;;;;4159812;28;20097;-91
2022/06/30 03:40:17;;;;;;;7.93;3.67;;;18.80;96.20;;;;;;4148710;28;20077;-89
2022/06/30 03:42:17;;;;;;;11.68;4.40;;;18.70;96.30;;;;;;4177445;28;20378;-89
2022/06/30 03:44:18;;;;;;;6.88;3.53;;;18.70;96.30;;;;;;4152712;28;20107;-88
2022/06/30 03:46:19;;;;;;;7.53;3.63;;;18.70;96.40;;;;;;4176958;28;20106;-90
2022/06/30 03:48:20;;;;;;;9.65;4.20;;;18.60;96.50;;;;;;4159217;28;20037;-89
2022/06/30 03:50:22;;;;;;;6.97;3.58;;;18.70;96.50;;;;;;4166874;28;20045;-89
2022/06/30 03:52:29;;;;;;;5.20;3.22;;;18.70;96.60;;;;;;4168374;28;20069;-89
2022/06/30 03:54:30;;;;;;;5.68;3.40;;;18.70;96.70;;;;;;4157407;28;20049;-90
2022/06/30 03:56:30;;;;;;;4.10;3.70;;;18.70;96.70;;;;;;4170492;28;20076;-89
2022/06/30 03:58:31;;;;;;;5.57;3.28;;;18.60;96.70;;;;;;4172509;28;20041;-89
2022/06/30 04:00:34;;;;;;;9.60;3.88;;;18.60;96.80;;;;;;4163336;28;20044;-89
2022/06/30 04:02:35;;;;;;;5.50;3.53;;;18.60;96.90;;;;;;4177903;28;20448;-89
2022/06/30 04:04:36;;;;;;;5.15;3.40;;;18.60;96.90;;;;;;4167022;28;20049;-91
2022/06/30 04:06:37;;;;;;;5.20;3.17;;;18.60;96.90;;;;;;4170051;28;20516;-90
2022/06/30 04:08:38;;;;;;;5.18;3.50;;;18.50;96.90;;;;;;4176592;28;20485;-90
2022/06/30 04:10:39;;;;;;;7.25;3.47;;;18.50;97.00;;;;;;4167575;28;20440;-91
2022/06/30 04:12:41;;;;;;;5.18;3.50;;;18.50;97.00;;;;;;4162722;28;20408;-91
2022/06/30 04:14:44;;;;;;;3.97;3.15;;;18.50;97.10;;;;;;4180464;28;20449;-89
2022/06/30 04:16:47;;;;;;;5.22;3.08;;;18.50;97.20;;;;;;4187771;28;20096;-87
2022/06/30 04:18:48;;;;;;;7.00;3.47;;;18.50;97.10;;;;;;4173071;28;20041;-87
2022/06/30 04:20:50;;;;;;;6.57;3.22;;;18.50;97.10;;;;;;4168041;28;20055;-87
2022/06/30 04:22:53;;;;;;;4.35;3.05;;;18.50;97.00;;;;;;4170941;28;20049;-87
2022/06/30 04:24:55;;;;;;;5.35;3.17;;;18.50;97.10;;;;;;4167006;28;20037;-87
2022/06/30 04:26:56;;;;;;;6.22;3.10;;;18.50;97.30;;;;;;4168733;28;20060;-87
2022/06/30 04:28:57;;;;;;;4.43;3.30;;;18.50;97.30;;;;;;4178135;28;20456;-87
2022/06/30 04:33:18;;;;;;;6.18;3.65;;;18.40;97.30;;;;;;4177256;28;20045;-87
2022/06/30 04:35:19;;;;;;;4.88;3.20;;;18.40;97.20;;;;;;4174831;28;20532;-87
2022/06/30 04:37:20;;;;;;;6.68;3.38;;;18.30;97.30;;;;;;4171664;28;20175;-87
2022/06/30 04:39:21;;;;;;;5.90;3.20;;;18.40;97.50;;;;;;4148641;28;20121;-86
2022/06/30 04:41:24;;;;;;;5.82;3.50;;;18.40;97.40;;;;;;4158599;28;20037;-87
2022/06/30 04:43:25;;;;;;;6.18;2.85;;;18.40;97.40;;;;;;4170596;28;20084;-86
2022/06/30 04:45:26;;;;;;;7.10;3.75;;;18.50;97.30;;;;;;4170185;28;20053;-86
2022/06/30 04:47:26;;;;;;;6.40;3.40;;;18.50;97.30;;;;;;4162762;28;20401;-86
2022/06/30 04:49:28;;;;;;;6.20;3.58;;;18.50;97.30;;;;;;4161680;28;20046;-87
2022/06/30 04:51:29;;;;;;;6.13;4.13;;;18.50;97.30;;;;;;4175488;28;20540;-86
2022/06/30 04:53:31;;;;;;;5.03;3.10;;;18.60;97.30;;;;;;4172532;28;20044;-87
2022/06/30 04:55:31;;;;;;;7.15;4.07;;;18.70;97.40;;;;;;4170447;28;20034;-87
2022/06/30 04:57:32;;;;;;;6.57;3.33;;;18.70;97.40;;;;;;4157785;28;20129;-87
2022/06/30 04:59:33;;;;;;;9.68;3.17;;;18.80;97.30;;;;;;4176473;28;20120;-87
2022/06/30 05:01:34;;;;;;;5.45;2.60;;;18.80;97.20;;;;;;4157177;28;20053;-87
2022/06/30 05:03:35;;;;;;;5.80;3.30;;;18.80;97.20;;;;;;4152206;28;20129;-87
2022/06/30 05:05:36;;;;;;;4.82;2.88;;;18.80;97.10;;;;;;4174537;28;20041;-87
2022/06/30 05:07:36;;;;;;;5.47;3.13;;;18.80;97.00;;;;;;4178409;28;20041;-87
2022/06/30 05:09:37;;;;;;;5.40;2.90;;;19.00;97.10;;;;;;4176104;28;20064;-87
2022/06/30 05:11:38;;;;;;;13.48;2.85;;;19.00;96.90;;;;;;4173644;28;20037;-87
2022/06/30 05:13:40;;;;;;;4.78;3.35;;;19.00;96.90;;;;;;4159088;28;20080;-87
2022/06/30 05:15:41;;;;;;;4.40;2.83;;;19.00;96.80;;;;;;4177801;28;20054;-87
2022/06/30 05:17:42;;;;;;;5.28;2.72;;;19.10;96.80;;;;;;4173691;28;20041;-87
2022/06/30 05:19:43;;;;;;;4.65;2.80;;;19.10;96.80;;;;;;4174614;28;20104;-88
2022/06/30 05:21:44;;;;;;;8.10;3.05;;;19.20;96.80;;;;;;4169831;28;20041;-88
2022/06/30 05:26:28;;;;;;;8.98;3.15;;;19.20;96.70;;;;;;4164843;28;20099;-88
2022/06/30 05:28:26;;;;;;;;;;;19.30;96.60;;;;;;4174714;28;20049;-88
2022/06/30 05:30:27;;;;;;;6.53;3.90;;;19.40;97.20;;;;;;4167373;28;19944;-88
2022/06/30 05:32:27;;;;;;;11.32;5.65;;;19.40;96.40;;;;;;4182369;28;20049;-87
2022/06/30 05:34:29;;;;;;;8.80;5.95;;;19.50;96.40;;;;;;4185807;28;20111;-88
2022/06/30 05:36:30;;;;;;;11.93;5.93;;;19.50;96.40;;;;;;4173050;28;20050;-87
2022/06/30 05:38:31;;;;;;;11.50;7.55;;;19.60;96.40;;;;;;4175989;28;20064;-87
2022/06/30 05:40:31;;;;;;;14.13;7.90;;;19.70;96.40;;;;;;4177198;28;20048;-87
2022/06/30 05:42:32;;;;;;;14.23;9.13;;;19.70;96.30;;;;;;4181868;28;20128;-87
2022/06/30 05:44:33;;;;;;;14.00;8.27;;;19.80;96.30;;;;;;4172435;28;20050;-88
2022/06/30 05:46:36;;;;;;;17.38;9.05;;;19.80;96.30;;;;;;4179615;28;20128;-87
2022/06/30 05:48:44;;;;;;;19.08;9.70;;;19.90;96.30;;;;;;4183074;28;20099;-87
2022/06/30 05:50:45;;;;;;;13.77;8.52;;;20.00;96.70;;;;;;4180703;28;20072;-88
2022/06/30 05:52:47;;;;;;;11.13;7.10;;;20.00;96.30;;;;;;4170759;28;20409;-88
2022/06/30 05:54:48;;;;;;;11.40;6.95;;;20.10;96.40;;;;;;4174157;28;20475;-89
2022/06/30 05:56:49;;;;;;;7.95;5.75;;;20.10;96.40;;;;;;4182257;28;20048;-88
2022/06/30 05:58:53;;;;;;;8.85;6.20;;;20.20;96.40;;;;;;4171558;28;20045;-89
2022/06/30 06:01:00;;;;;;;8.65;4.70;;;20.20;96.30;;;;;;4166530;28;20053;-88
2022/06/30 06:03:01;;;;;;;8.07;3.42;;;20.20;96.40;;;;;;4166951;28;20520;-89
2022/06/30 06:05:02;;;;;;;6.68;3.58;;;20.40;96.20;;;;;;4171677;28;20117;-90
2022/06/30 06:07:03;;;;;;;4.55;3.42;;;20.40;96.30;;;;;;4160678;28;20523;-89
2022/06/30 06:09:04;;;;;;;6.55;2.80;;;20.50;96.30;;;;;;4178139;28;20037;-89
2022/06/30 06:11:06;;;;;;;6.20;3.53;;;20.70;96.30;;;;;;4163956;28;20071;-89
2022/06/30 06:13:09;;;;;;;4.55;3.60;;;20.60;96.20;;;;;;4170074;28;20135;-88
2022/06/30 06:15:17;;;;;;;5.72;3.30;;;20.60;96.10;;;;;;4168664;28;20041;-88
2022/06/30 06:17:18;;;;;;;3.42;2.50;;;20.70;96.10;;;;;;4162163;28;20049;-88
2022/06/30 06:19:19;;;;;;;6.53;2.90;;;20.70;96.10;;;;;;4181157;28;20048;-88
2022/06/30 06:21:19;;;;;;;6.15;2.80;;;20.80;96.10;;;;;;4170082;28;20045;-88
2022/06/30 06:23:20;;;;;;;4.47;2.90;;;20.90;96.00;;;;;;4167254;28;20061;-88
2022/06/30 06:25:21;;;;;;;4.05;2.92;;;21.00;95.80;;;;;;4169555;28;20064;-88
2022/06/30 06:27:22;;;;;;;7.50;3.30;;;21.00;95.80;;;;;;4167763;28;20467;-89
2022/06/30 06:29:23;;;;;;;4.13;3.03;;;21.00;95.60;;;;;;4166191;28;20050;-88
2022/06/30 06:31:24;;;;;;;9.25;3.10;;;21.10;95.50;;;;;;4164999;28;20128;-88
2022/06/30 06:33:24;;;;;;;4.68;3.00;;;21.10;95.30;;;;;;4176985;28;20053;-87
2022/06/30 06:35:26;;;;;;;4.03;3.15;;;21.20;95.10;;;;;;4165729;28;20049;-87
2022/06/30 06:37:26;;;;;;;4.30;2.53;;;21.20;94.60;;;;;;4178686;28;20045;-90
2022/06/30 06:39:27;;;;;;;10.07;3.38;;;21.20;94.60;;;;;;4181865;28;20404;-89
2022/06/30 06:41:28;;;;;;;5.47;2.90;;;21.20;94.40;;;;;;4178446;28;20037;-91
2022/06/30 06:43:29;;;;;;;5.78;3.22;;;21.20;94.10;;;;;;4179200;28;20060;-89
2022/06/30 06:45:30;;;;;;;5.25;2.85;;;21.20;93.90;;;;;;4180401;28;20094;-88
2022/06/30 06:47:32;;;;;;;5.25;3.08;;;21.30;93.90;;;;;;4164042;28;20064;-90
2022/06/30 06:49:33;;;;;;;4.68;3.05;;;21.30;93.80;;;;;;4166077;28;20053;-89
2022/06/30 06:51:35;;;;;;;6.53;3.13;;;21.40;93.70;;;;;;4164377;28;20064;-92
2022/06/30 06:53:37;;;;;;;5.78;3.15;;;21.40;93.60;;;;;;4177662;28;20037;-87
2022/06/30 06:55:37;;;;;;;5.00;3.42;;;21.40;93.50;;;;;;4170038;28;20065;-87
2022/06/30 06:57:40;;;;;;;6.43;3.42;;;21.50;93.50;;;;;;4179399;28;20037;-89
2022/06/30 06:59:41;;;;;;;6.65;3.25;;;21.60;93.50;;;;;;4167635;28;20505;-88
2022/06/30 07:01:42;;;;;;;9.55;4.47;;;21.60;93.40;;;;;;4180059;28;20076;-88
2022/06/30 07:03:52;;;;;;;6.32;3.53;;;21.70;93.30;;;;;;4167283;28;20055;-88
2022/06/30 07:05:52;;;;;;;4.72;3.42;;;21.70;93.30;;;;;;4173128;28;20045;-88
2022/06/30 07:07:58;;;;;;;8.73;3.45;;;21.80;93.30;;;;;;4173335;28;20043;-89
2022/06/30 07:09:59;;;;;;;7.30;3.88;;;21.80;93.40;;;;;;4178093;28;20075;-89
2022/06/30 07:11:59;;;;;;;5.53;3.75;;;22.00;93.20;;;;;;4180768;28;20140;-89
2022/06/30 07:14:01;;;;;;;7.13;3.55;;;22.00;93.00;;;;;;4169991;28;20046;-89
2022/06/30 07:16:02;;;;;;;7.15;3.88;;;22.10;93.00;;;;;;4165368;28;20053;-89
2022/06/30 07:18:03;;;;;;;7.18;3.88;;;22.20;93.00;;;;;;4182928;28;20049;-89
2022/06/30 07:20:05;;;;;;;8.65;3.97;;;22.40;93.10;;;;;;4167266;28;20088;-88
2022/06/30 07:22:07;;;;;;;8.18;4.80;;;22.40;93.10;;;;;;4160911;28;20095;-89
2022/06/30 07:24:09;;;;;;;6.80;3.40;;;22.60;92.90;;;;;;4183595;28;20084;-89
2022/06/30 07:26:11;;;;;;;6.57;3.55;;;22.60;92.80;;;;;;4182787;28;20459;-88
2022/06/30 07:28:15;;;;;;;7.32;3.72;;;22.70;92.70;;;;;;4179771;28;20516;-89
2022/06/30 07:30:16;;;;;;;7.32;3.92;;;22.80;92.90;;;;;;4149947;28;20435;-89
2022/06/30 07:32:18;;;;;;;6.82;3.70;;;22.90;92.80;;;;;;4149609;28;20046;-89
2022/06/30 07:34:19;;;;;;;5.65;3.30;;;23.00;92.70;;;;;;4149998;28;20110;-89
2022/06/30 07:36:21;;;;;;;8.40;3.25;;;23.10;92.60;;;;;;4166667;28;20505;-89
2022/06/30 07:38:21;;;;;;;6.63;3.53;;;23.20;92.40;;;;;;4167211;28;20049;-88
2022/06/30 07:40:22;;;;;;;7.47;2.97;;;23.30;92.30;;;;;;4167740;28;20121;-89
2022/06/30 07:42:24;;;;;;;6.43;2.83;;;23.50;92.40;;;;;;4149544;28;20046;-90
2022/06/30 07:44:25;;;;;;;5.95;3.88;;;23.50;92.10;;;;;;4167946;28;20097;-89
2022/06/30 07:46:26;;;;;;;4.95;3.47;;;23.60;92.30;;;;;;4180734;28;20528;-89
2022/06/30 07:48:28;;;;;;;7.25;3.40;;;23.60;92.00;;;;;;4181753;28;20048;-89
2022/06/30 07:50:29;;;;;;;10.05;3.50;;;23.50;91.70;;;;;;4166347;28;20096;-89
2022/06/30 07:52:30;;;;;;;4.43;3.00;;;23.60;91.90;;;;;;4184525;28;20090;-88
2022/06/30 07:55:04;;;;;;;;;;;;;;;;;;;;;
2022/06/30 07:57:09;;;;;;;6.63;3.53;;;23.60;91.40;;;;;;4165646;28;20493;-89
2022/06/30 07:59:10;;;;;;;5.18;3.83;;;23.60;91.70;;;;;;4149626;28;20049;-87
2022/06/30 08:01:11;;;;;;;7.15;3.72;;;23.60;91.60;;;;;;4149134;28;20050;-89
2022/06/30 08:03:12;;;;;;;6.03;3.50;;;23.60;91.60;;;;;;4177186;28;20410;-89
2022/06/30 08:05:14;;;;;;;5.15;3.53;;;23.60;91.60;;;;;;4156958;28;20053;-89
2022/06/30 08:07:16;;;;;;;9.02;4.20;;;23.60;91.90;;;;;;4155521;28;20436;-90
2022/06/30 08:09:16;;;;;;;4.43;3.33;;;23.80;91.70;;;;;;4150664;28;20053;-87
2022/06/30 08:11:18;;;;;;;4.00;3.20;;;23.90;91.70;;;;;;4185583;28;20091;-88
2022/06/30 08:13:20;;;;;;;14.90;5.15;;;23.90;91.40;;;;;;4187805;28;20508;-89
2022/06/30 08:15:22;;;;;;;5.80;3.33;;;24.10;91.40;;;;;;4172504;28;20076;-87
2022/06/30 08:17:24;;;;;;;7.85;3.53;;;24.20;91.40;;;;;;4188103;28;20051;-88
2022/06/30 08:19:25;;;;;;;7.50;3.78;;;24.40;91.40;;;;;;4170714;28;20077;-88
2022/06/30 08:21:26;;;;;;;6.00;3.80;;;24.50;91.30;;;;;;4185251;28;20167;-88
2022/06/30 08:23:28;;;;;;;7.72;3.55;;;24.40;91.10;;;;;;4171372;28;20049;-88
2022/06/30 08:25:29;;;;;;;6.03;3.40;;;24.50;91.20;;;;;;4179145;28;20049;-87
2022/06/30 08:27:30;;;;;;;7.05;3.67;;;24.50;91.30;;;;;;4154567;28;20049;-88
2022/06/30 08:29:37;;;;;;;7.30;3.92;;;;;;;;;;4171367;28;20057;-88
2022/06/30 08:31:40;;;;;;;6.28;3.88;;;;;;;;;;4155356;28;20046;-87
2022/06/30 08:33:41;;;;;;;5.78;3.85;;;;;;;;;;4170843;28;20060;-88
2022/06/30 08:35:43;;;;;;;5.43;4.00;;;;;;;;;;4171218;28;20049;-90
2022/06/30 08:37:44;;;;;;;6.38;3.80;;;;;;;;;;4151458;28;20050;-91
2022/06/30 08:42:06;;;;;;;5.07;3.85;;;;;;;;;;4194108;28;20048;-92
2022/06/30 08:44:09;;;;;;;5.97;3.90;;;;;;;;;;4175603;28;20045;-89
2022/06/30 08:46:12;;;;;;;7.07;3.63;;;;;;;;;;4176814;28;20060;-88
2022/06/30 08:48:13;;;;;;;5.10;3.60;;;24.50;91.30;;;;;;4165262;28;20401;-87
2022/06/30 08:50:17;;;;;;;4.70;3.83;;;25.20;90.90;;;;;;4186434;28;20041;-88
2022/06/30 08:52:19;;;;;;;4.78;3.75;;;25.40;90.90;;;;;;4197255;28;20063;-88
2022/06/30 08:54:22;;;;;;;5.38;4.03;;;25.60;90.80;;;;;;4180780;28;20057;-88
2022/06/30 08:56:24;;;;;;;4.93;4.10;;;25.70;88.80;;;;;;4198142;28;20076;-87
2022/06/30 08:58:25;;;;;;;5.68;3.80;;;25.70;89.80;;;;;;4198330;28;20082;-88
2022/06/30 09:00:26;;;;;;;5.90;4.10;;;25.60;89.10;;;;;;4198114;28;20474;-88
2022/06/30 09:02:26;;;;;;;6.25;4.22;;;25.50;89.00;;;;;;4177413;28;20100;-87
2022/06/30 09:04:29;;;;;;;10.20;4.22;;;25.50;89.50;;;;;;4187543;28;20045;-88
2022/06/30 09:06:30;;;;;;;9.50;4.57;;;25.60;89.90;;;;;;4153721;28;20038;-90
2022/06/30 09:08:31;;;;;;;7.32;4.78;;;25.70;89.60;;;;;;4153231;28;20501;-89
2022/06/30 09:10:32;;;;;;;9.82;5.45;;;25.70;89.20;;;;;;4183235;28;20036;-87
2022/06/30 09:12:33;;;;;;;10.55;3.92;;;25.70;89.20;;;;;;4202739;28;20504;-87
2022/06/30 09:14:34;;;;;;;9.52;5.00;;;25.90;90.00;;;;;;4190666;28;20433;-87
2022/06/30 09:17:30;;;;;;;5.93;4.25;;;25.90;89.10;;;;;;4207614;28;20060;-89
2022/06/30 09:19:53;;;;;;;6.40;4.57;;;25.90;89.00;;;;;;4198039;28;20509;-88
2022/06/30 09:22:14;;;;;;;10.18;4.57;;;26.30;89.00;;;;;;4206807;28;20044;-88
2022/06/30 09:24:24;;;;;;;7.00;5.05;;;26.40;86.90;;;;;;4209380;28;20083;-88
2022/06/30 09:26:24;;;;;;;7.05;4.93;;;26.60;86.70;;;;;;4197935;28;20053;-88
2022/06/30 09:31:46;;;;;;;7.22;5.07;;;26.70;85.90;;;;;;4175325;28;20109;-88
2022/06/30 09:33:47;;;;;;;8.30;5.03;;;27.00;86.90;;;;;;4168843;28;20053;-88
2022/06/30 09:35:48;;;;;;;5.72;4.68;;;27.10;86.30;;;;;;4161759;28;20041;-89
2022/06/30 09:38:15;;;;;;;5.45;4.47;;;27.30;85.80;;;;;;4182329;28;20109;-89
2022/06/30 09:40:28;;;;;;;5.65;4.50;;;27.20;81.30;;;;;;4176652;28;20060;-90
2022/06/30 09:42:37;;;;;;;6.88;4.82;;;27.20;82.10;;;;;;4162251;28;20045;-89
2022/06/30 09:44:38;;;;;;;7.43;4.53;;;27.20;81.30;;;;;;4158208;28;20053;-90
2022/06/30 09:46:59;;;;;;;10.82;5.22;;;27.40;84.20;;;;;;4176975;28;20515;-89
2022/06/30 09:49:00;;;;;;;7.22;5.00;;;27.60;83.40;;;;;;4159389;28;20046;-88
2022/06/30 09:51:04;;;;;;;9.48;5.20;;;27.70;82.30;;;;;;4178720;28;20327;-88
2022/06/30 09:53:12;;;;;;;8.70;5.10;;;27.60;81.80;;;;;;4163344;28;20050;-89
2022/06/30 09:55:14;;;;;;;6.18;4.72;;;27.60;82.20;;;;;;4184401;28;20037;-90
2022/06/30 09:57:16;;;;;;;8.15;5.70;;;27.60;82.50;;;;;;4191299;28;20063;-89
2022/06/30 09:59:27;;;;;;;6.20;4.60;;;27.80;80.20;;;;;;4195369;28;20064;-88
2022/06/30 10:01:28;;;;;;;6.95;4.18;;;27.90;81.10;;;;;;4205294;28;20137;-88
2022/06/30 10:03:29;;;;;;;7.38;5.95;;;28.00;81.10;;;;;;4174795;28;20057;-87
2022/06/30 10:05:30;;;;;;;8.82;5.20;;;;;;;;;;4168875;28;20232;-89
2022/06/30 10:07:35;;;;;;;7.97;5.88;;;;;;;;;;4169822;28;20057;-89
2022/06/30 10:09:39;;;;;;;8.27;5.10;;;28.20;81.00;;;;;;4185801;28;20095;-89
2022/06/30 10:11:41;;;;;;;6.72;5.13;;;28.30;80.40;;;;;;4168808;28;20045;-88
2022/06/30 10:13:43;;;;;;;7.68;5.32;;;28.30;79.50;;;;;;4168478;28;20552;-90
2022/06/30 10:15:52;;;;;;;8.35;5.50;;;28.60;77.70;;;;;;4161105;28;20475;-89
2022/06/30 10:17:54;;;;;;;7.20;5.20;;;28.60;76.40;;;;;;4200531;28;20083;-90
2022/06/30 10:19:57;;;;;;;6.78;4.25;;;;;;;;;;4185040;28;20055;-90
2022/06/30 10:21:58;;;;;;;6.68;4.53;;;29.00;76.00;;;;;;4184284;28;20102;-89
2022/06/30 10:24:00;;;;;;;9.23;5.40;;;29.90;75.20;;;;;;4200366;28;20508;-88
2022/06/30 10:26:06;;;;;;;6.22;5.13;;;30.00;72.60;;;;;;4198897;28;20074;-90
2022/06/30 10:28:09;;;;;;;7.18;4.43;;;;;;;;;;4171403;28;20052;-89
2022/06/30 10:30:13;;;;;;;5.95;4.80;;;30.00;72.30;;;;;;4200237;28;20048;-88
2022/06/30 10:32:40;;;;;;;5.20;3.45;;;30.40;71.90;;;;;;4198050;28;20060;-88
2022/06/30 10:34:54;;;;;;;6.95;5.13;;;30.80;72.00;;;;;;4167619;28;20133;-90
2022/06/30 10:37:16;;;;;;;10.57;5.03;;;30.80;69.40;;;;;;4184716;28;20408;-89
2022/06/30 10:39:52;;;;;;;5.82;4.90;;;30.60;69.40;;;;;;4166591;28;20185;-88
2022/06/30 10:41:53;;;;;;;6.63;5.35;;;30.70;69.90;;;;;;4183873;28;20068;-89
2022/06/30 10:44:03;;;;;;;7.10;5.90;;;31.00;68.00;;;;;;4167678;28;20560;-89
2022/06/30 10:46:06;;;;;;;8.00;5.55;;;30.90;66.30;;;;;;4200618;28;20040;-90
2022/06/30 10:48:09;;;;;;;7.47;5.13;;;30.80;67.50;;;;;;4199969;28;20044;-90
2022/06/30 10:50:28;;;;;;;10.05;4.65;;;30.70;66.90;;;;;;4184675;28;20057;-91
2022/06/30 10:52:31;;;;;;;6.35;5.13;;;30.80;68.20;;;;;;4183905;28;20049;-91
2022/06/30 10:54:35;;;;;;;7.40;5.13;;;31.00;67.10;;;;;;4184780;28;20048;-91